GOAD weather

Goads field
Bradford, Arkansas, United States

Public forecast

Using degrees Fahrenheit for public forecast. Weather courtesy of forecast.io.

METAR (pilot weather report)

Closest report is Newport Regional Airport, 17.4 nm (32.2 km) NE. Retrieved UTC (0 seconds ago):

TAF (pilot weather forecast)

Closest forecast is Jonesboro Municipal Airport, 44.6 nm (82.6 km) NE. Retrieved 2019/07/18 06:22 UTC (4 hours ago):

TAF KJBR 180520Z 1806/1906 04010G17KT P6SM VCSH SCT030 BKN150 FM180800 19005KT P6SM FEW040 BKN250 FM181400 23009KT P6SM FEW035 SCT250 FM181700 22011G17KT P6SM SCT040 SCT250 FM190100 20007KT P6SM FEW250